KFLY

Meadow Lake Airport

Colorado Springs, Colorado, USA
METAR KFLY 211615Z AUTO 05005KT 10SM CLR 08/M14 A2960 RMK AO2 T00791145
Observed Flight Rules
Jan-21 @ 16:15 UTC (17 minutes ago) Visual Flight Rules
Wind Visibility Clouds
50° at 5 knots 10 miles
  • Clear skies
Temperatures Readings
Current 8°C / 46°F
Dewpoint -15°C / 5°F
Humidity 18%
Altimeter 29.6" Hg
Pressure 1002.42 hPa
Elevation 2096
METAR KFLY 211615Z AUTO 05005KT 10SM CLR 08/M14 A2960 RMK AO2 T00791145
Observed Flight Rules
Jan-21 @ 16:15 UTC
(17 minutes ago)
VFR
Wind Visibility
50° at 5 knots 10 miles
Clouds
  • Clear skies
Temperature Dewpoint
8°C / 46°F -15°C / 5°F
Humidity Altimeter Pressure
18% 29.6" Hg 1002.42 hPa